Decoded Metar for LFOE (EVREUX in FRANCE) (IATA:N/A) | Meteo·Mobile Aviation Weather
aviador You're here:

LFOE Decoded Metar

EVREUX in FRANCE
Report Time2019-07-16 09:30:00
UTC Time2019-07-16 10:06:00
Flight Rules vfr VFR
Wind040° at 04 kt
W.Decomp.*RWY 04: 4.0 kt HW 0.1 kt RCW
Visibility9999 m
Phenomena:N/A
Clouds:N/A
Expected CloudBase > 4,000 ft AGL from Temp-Dew spread
CeilingNone
Temp20°C (ISA +6)
Dew Point10°C (53% RH)
AAT18.6°C
QNH1019 hPa
Density Alt1,142 ft
Elevation479 ft
Report Wrong Elevation
Raw Report
LFOE 160930Z AUTO 04004KT 320V130 CAVOK 20/10 Q1019 NOSIG=

Extra information for LFOE:More info

Metar Taf Metar & Taf Last 4 Metars F.Rules Stats Wind Profile Meteogram Temp Stats Airport Information Weather charts Add Link Nearby VenuesMetar ALERT Operation Metar Decoded Social comments